Time;durP1;ratioP1;P1;durP2;ratioP2;P2;SDS_P1;SDS_P2;PMS_P1;PMS_P2;Temp;Humidity;BMP_temperature;BMP_pressure;BME280_temperature;BME280_humidity;BME280_pressure;Samples;Min_cycle;Max_cycle;Signal;HPM_P1;HPM_P2
2021/12/04 16:48:49;;;;;;;;;1.75;1.75;;;;;12.96;64.32;101573.06;5030255;27;45196;-96
2021/12/04 17:13:27;;;;;;;;;12.50;10.00;;;;;14.57;59.81;101627.44;5858629;23;45709;-96
2021/12/04 17:15:54;;;;;;;;;17.50;15.00;;;;;14.53;58.93;101604.56;4977487;28;44783;-96
2021/12/04 17:18:23;;;;;;;;;15.75;12.25;;;;;14.74;58.43;101634.28;4959430;28;44948;-96
2021/12/04 17:20:51;;;;;;;;;12.75;11.75;;;;;14.57;58.29;101595.41;4937599;28;47195;-96
2021/12/04 17:23:35;;;;;;;;;9.60;9.00;;;;;14.76;58.10;101621.66;4956436;28;44781;-96
2021/12/04 17:26:00;;;;;;;;;9.75;7.75;;;;;14.97;57.90;101642.50;4962844;28;45270;-94
2021/12/04 17:28:32;;;;;;;;;5.50;4.75;;;;;14.70;57.21;101601.56;4923644;28;45433;-95
2021/12/04 17:30:57;;;;;;;;;6.00;5.00;;;;;15.08;57.65;101665.78;4944109;28;47056;-96
2021/12/04 17:33:23;;;;;;;;;5.25;5.25;;;;;14.86;58.01;101653.06;4940595;28;45408;-96
2021/12/04 17:36:05;;;;;;;;;9.25;8.00;;;;;14.94;57.82;101608.81;4974977;28;44745;-96
2021/12/04 17:38:31;;;;;;;;;5.00;5.00;;;;;15.03;57.40;101614.47;5009509;23;45620;-96
2021/12/04 17:40:59;;;;;;;;;4.00;4.00;;;;;15.00;57.61;101606.69;5006560;23;46602;-94
2021/12/04 17:43:26;;;;;;;;;9.20;5.00;;;;;15.07;58.27;101613.28;4922473;28;45682;-96
2021/12/04 17:46:30;;;;;;;;;8.60;7.00;;;;;15.03;57.45;101593.94;4920124;28;45521;-96
2021/12/04 17:49:05;;;;;;;;;8.25;8.00;;;;;15.14;57.12;101603.88;4972017;28;45527;-96
2021/12/04 17:51:41;;;;;;;;;;;;;;;;;;;;;
2021/12/04 17:54:09;;;;;;;;;9.75;7.00;;;;;15.12;56.10;101607.59;4942728;28;71256;-96
2021/12/04 17:56:37;;;;;;;;;5.40;5.40;;;;;14.95;55.83;101583.81;4926146;28;45265;-95
2021/12/04 17:59:03;;;;;;;;;8.00;8.00;;;;;15.14;55.87;101613.69;4933312;28;44891;-96
2021/12/04 18:01:50;;;;;;;;;8.25;8.25;;;;;15.10;55.72;101615.72;4932560;28;47229;-96
2021/12/04 18:04:21;;;;;;;;;12.40;10.00;;;;;15.14;55.45;101627.06;4917351;28;45423;-96
2021/12/04 18:13:48;;;;;;;;;8.25;8.25;;;;;15.12;55.31;101600.44;4766316;29;45455;-96
2021/12/04 18:16:38;;;;;;;;;9.00;7.00;;;;;15.27;55.55;101625.19;4751201;29;45421;-96
2021/12/04 18:19:19;;;;;;;;;10.50;10.25;;;;;15.28;55.75;101631.41;5014793;23;45695;-96
2021/12/04 18:21:47;;;;;;;;;15.00;12.00;;;;;15.10;55.48;101596.16;4910735;28;45553;-96
2021/12/04 18:24:20;;;;;;;;;10.75;10.00;;;;;15.08;55.87;101598.97;4910134;28;47167;-93
2021/12/04 18:26:46;;;;;;;;;6.40;6.40;;;;;15.08;55.72;101595.44;4919894;28;45438;-94
2021/12/04 18:29:12;;;;;;;;;7.75;7.50;;;;;15.08;55.85;101606.97;4918351;28;45527;-93
2021/12/04 18:31:46;;;;;;;;;6.25;6.25;;;;;15.23;55.82;101628.22;4933248;28;45632;-95
2021/12/04 18:34:11;;;;;;;;;11.75;8.50;;;;;15.00;55.64;101593.31;4908976;28;46793;-92
2021/12/04 18:36:37;;;;;;;;;11.75;11.75;;;;;15.07;55.50;101605.25;4909246;28;48107;-93
2021/12/04 18:39:12;;;;;;;;;15.00;13.00;;;;;15.25;55.86;101632.47;4933654;28;45385;-95
2021/12/04 18:41:38;;;;;;;;;14.00;11.75;;;;;14.98;55.59;101604.09;4940138;28;45688;-94
2021/12/04 18:44:06;;;;;;;;;15.50;14.00;;;;;15.16;55.68;101650.03;4923062;28;46919;-93
2021/12/04 18:46:34;;;;;;;;;17.75;15.25;;;;;15.23;55.66;101681.69;4929086;28;45752;-93
2021/12/04 18:49:01;;;;;;;;;7.60;6.40;;;;;14.94;56.82;101629.34;4906760;28;45354;-96
2021/12/04 18:51:27;;;;;;;;;8.00;7.25;;;;;15.03;56.39;101623.34;4911020;28;45643;-96
2021/12/04 18:53:54;;;;;;;;;11.50;6.00;;;;;15.14;56.46;101641.28;4905534;28;47438;-95
2021/12/04 22:24:32;;;;;;;;;8.00;5.00;;;;;13.83;55.15;101425.16;4712044;30;45441;-95
2021/12/04 22:59:38;;;;;;;;;7.25;5.75;;;;;13.85;54.62;101420.56;4693689;30;45520;-95
2021/12/04 23:02:09;;;;;;;;;5.00;4.00;;;;;13.87;54.94;101432.97;4710993;30;47349;-96
2021/12/04 23:04:43;;;;;;;;;3.20;2.00;;;;;13.89;55.49;101425.69;4700210;30;46791;-96
2021/12/04 23:13:28;;;;;;;;;4.00;2.00;;;;;13.93;55.36;101393.38;4745113;29;45518;-96
2021/12/04 23:15:42;;;;;;;;;2.40;2.00;;;;;13.91;55.62;101383.78;4736168;29;45559;-95
2021/12/04 23:34:43;;;;;;;;;2.00;1.00;;;;;13.87;54.90;101406.28;4757262;29;44982;-96
2021/12/04 23:43:19;;;;;;;;;1.75;1.00;;;;;13.89;55.51;101409.69;4718549;30;45510;-95
2021/12/04 23:46:02;;;;;;;;;0.00;0.00;;;;;14.01;55.43;101446.19;4715901;30;48329;-95
